Time;durP1;ratioP1;P1;durP2;ratioP2;P2;SDS_P1;SDS_P2;PMS_P1;PMS_P2;Temp;Humidity;BMP_temperature;BMP_pressure;BME280_temperature;BME280_humidity;BME280_pressure;Samples;Min_cycle;Max_cycle;Signal;HPM_P1;HPM_P2
2024/01/28 00:02:31;;;;;;;2.15;1.35;;;;;;;7.71;51.07;96386.06;6243094;22;20028;-87
2024/01/28 00:04:56;;;;;;;3.90;1.70;;;;;;;7.81;50.99;96407.63;6192032;23;20016;-87
2024/01/28 00:07:22;;;;;;;3.08;1.80;;;;;;;7.55;51.48;96385.72;6191980;23;20012;-88
2024/01/28 00:09:52;;;;;;;2.55;1.80;;;;;;;7.33;52.59;96392.72;6167795;23;20088;-87
2024/01/28 00:12:18;;;;;;;3.25;1.80;;;;;;;7.12;53.21;96391.91;6218848;23;20000;-87
2024/01/28 00:17:20;;;;;;;2.90;1.50;;;;;;;6.93;53.23;96377.91;6243389;22;20025;-88
2024/01/28 00:19:48;;;;;;;2.08;1.50;;;;;;;6.87;53.16;96388.75;6168325;23;20103;-87
2024/01/28 00:22:16;;;;;;;2.13;1.50;;;;;;;6.87;53.34;96383.56;6217580;23;20007;-87
2024/01/28 00:24:41;;;;;;;2.70;1.40;;;;;;;6.73;53.34;96369.19;6217333;23;20004;-87
2024/01/28 00:29:42;;;;;;;1.77;1.30;;;;;;;6.64;53.34;96370.78;6237359;22;20028;-87
2024/01/28 00:32:07;;;;;;;1.63;1.20;;;;;;;6.60;53.61;96359.03;6217770;23;20015;-88
2024/01/28 00:36:58;;;;;;;1.08;0.90;;;;;;;6.70;53.04;96368.63;6242012;22;20023;-86
2024/01/28 00:39:26;;;;;;;0.63;0.60;;;;;;;6.42;52.40;96358.75;6192517;23;20229;-86
2024/01/28 00:41:51;;;;;;;0.85;0.50;;;;;;;6.45;51.97;96348.19;6217580;23;20034;-87
2024/01/28 00:44:21;;;;;;;0.50;0.40;;;;;;;6.45;52.20;96350.75;6192629;23;20035;-88
2024/01/28 00:59:36;;;;;;;0.93;0.38;;;;;;;6.71;50.53;96323.72;6241663;22;20012;-87
2024/01/28 01:02:01;;;;;;;1.20;0.40;;;;;;;6.67;49.83;96337.84;6216843;23;20026;-87
2024/01/28 01:04:27;;;;;;;0.68;0.40;;;;;;;6.77;49.71;96329.19;6214517;23;20032;-87
2024/01/28 01:06:55;;;;;;;0.45;0.40;;;;;;;6.87;48.95;96337.03;6210569;23;20016;-87
2024/01/28 01:11:46;;;;;;;0.40;0.40;;;;;;;6.71;49.87;96345.22;6186400;23;20021;-86
2024/01/28 01:14:12;;;;;;;1.13;0.47;;;;;;;6.40;50.64;96337.38;6162484;23;20009;-87
2024/01/28 01:16:37;;;;;;;0.40;0.32;;;;;;;5.78;51.54;96336.22;6137764;23;20008;-86
2024/01/28 01:19:03;;;;;;;0.52;0.40;;;;;;;5.91;51.15;96335.28;6162533;23;20032;-88
2024/01/28 01:21:28;;;;;;;0.40;0.40;;;;;;;6.09;51.24;96333.84;6162758;23;20062;-86
2024/01/28 01:23:54;;;;;;;0.40;0.40;;;;;;;5.97;51.23;96340.00;6162244;23;20016;-86
2024/01/28 01:26:22;;;;;;;0.50;0.40;;;;;;;6.12;51.52;96335.38;6137909;23;20020;-87
2024/01/28 01:28:47;;;;;;;0.40;0.40;;;;;;;5.93;51.64;96335.97;6162864;23;20123;-87
2024/01/28 01:33:38;;;;;;;0.65;0.60;;;;;;;6.08;51.46;96337.38;6232016;23;20035;-86
2024/01/28 01:36:05;;;;;;;1.05;0.73;;;;;;;6.09;51.29;96348.53;6217377;23;20015;-86
2024/01/28 01:38:31;;;;;;;0.80;0.70;;;;;;;6.00;51.48;96344.94;6192237;23;20095;-86
2024/01/28 01:40:59;;;;;;;1.23;0.90;;;;;;;6.04;51.56;96347.13;6192570;23;20046;-87
2024/01/28 01:43:24;;;;;;;1.23;0.90;;;;;;;6.03;52.01;96349.84;6217095;23;20039;-87
2024/01/28 01:48:16;;;;;;;1.40;1.00;;;;;;;6.14;51.77;96334.31;6201538;22;20032;-88
2024/01/28 01:50:43;;;;;;;1.38;0.70;;;;;;;6.30;51.33;96344.22;6186932;23;20020;-87
2024/01/28 01:53:09;;;;;;;1.25;1.05;;;;;;;6.30;51.87;96348.56;6162034;23;20062;-87
2024/01/28 01:55:37;;;;;;;1.73;1.20;;;;;;;6.32;51.49;96351.84;6186856;23;20008;-88
2024/01/28 02:00:31;;;;;;;1.88;1.40;;;;;;;6.32;52.36;96344.09;6231833;22;20035;-87
2024/01/28 02:02:59;;;;;;;2.13;1.50;;;;;;;6.29;52.26;96342.59;6217128;23;20051;-88
2024/01/28 02:05:24;;;;;;;2.55;1.50;;;;;;;6.28;52.22;96347.88;6191927;23;20081;-87
2024/01/28 02:07:55;;;;;;;2.13;1.65;;;;;;;6.14;52.21;96342.06;6216826;23;20000;-87
2024/01/28 02:10:22;;;;;;;2.90;1.70;;;;;;;6.12;52.92;96349.09;6217233;23;20057;-88
2024/01/28 02:15:22;;;;;;;3.00;2.13;;;;;;;5.86;54.78;96351.97;6240964;23;20021;-87
2024/01/28 02:17:48;;;;;;;3.15;2.40;;;;;;;6.09;54.46;96362.25;6216924;23;20000;-87
2024/01/28 02:20:13;;;;;;;5.63;2.10;;;;;;;6.25;54.04;96365.28;6191468;23;20028;-87
2024/01/28 02:22:42;;;;;;;3.28;2.30;;;;;;;6.30;53.80;96359.72;6216367;23;20058;-87
2024/01/28 02:25:08;;;;;;;3.95;2.60;;;;;;;6.26;53.97;96351.41;6191575;23;20004;-88
2024/01/28 02:27:35;;;;;;;3.72;2.30;;;;;;;6.39;53.18;96364.16;6216786;23;20008;-87
2024/01/28 02:32:36;;;;;;;6.05;3.40;;;;;;;6.15;54.61;96359.22;6232327;23;20024;-86
2024/01/28 02:35:01;;;;;;;3.47;2.85;;;;;;;6.14;54.97;96373.06;6192047;23;20008;-87
2024/01/28 02:37:27;;;;;;;4.13;2.70;;;;;;;6.08;54.44;96365.78;6192058;23;20015;-87
2024/01/28 02:39:52;;;;;;;5.18;3.17;;;;;;;5.99;54.72;96357.00;6216847;23;20038;-86
2024/01/28 02:42:18;;;;;;;4.72;3.35;;;;;;;6.04;54.97;96372.97;6216442;23;20008;-87
2024/01/28 02:47:19;;;;;;;6.38;4.07;;;;;;;6.24;54.65;96362.81;6240132;22;20047;-86
2024/01/28 02:49:45;;;;;;;5.45;3.67;;;;;;;6.28;54.67;96347.88;6191595;23;20012;-86
2024/01/28 02:52:10;;;;;;;5.00;3.35;;;;;;;6.15;54.41;96343.72;6216613;23;20015;-88
2024/01/28 02:54:36;;;;;;;5.38;3.58;;;;;;;5.98;54.96;96355.38;6216814;23;20008;-87
2024/01/28 02:57:01;;;;;;;4.78;3.42;;;;;;;5.77;55.78;96363.00;6192062;23;20035;-87
2024/01/28 02:59:30;;;;;;;5.13;3.40;;;;;;;5.86;55.18;96358.88;6217059;23;20008;-88
2024/01/28 03:01:56;;;;;;;6.70;4.63;;;;;;;6.01;55.13;96360.28;6191178;23;20012;-87
2024/01/28 03:04:21;;;;;;;8.07;5.30;;;;;;;5.93;55.85;96343.72;6216951;23;20019;-87
2024/01/28 03:06:47;;;;;;;6.38;4.70;;;;;;;5.75;56.43;96346.81;6216315;23;20009;-87
2024/01/28 03:11:50;;;;;;;6.38;4.00;;;;;;;5.64;56.86;96354.56;6244188;22;20097;-86
2024/01/28 03:14:15;;;;;;;4.90;3.78;;;;;;;5.80;56.31;96349.84;6219353;23;20004;-88
2024/01/28 03:16:43;;;;;;;5.15;3.60;;;;;;;5.90;55.63;96354.28;6218731;23;20011;-88
2024/01/28 03:19:09;;;;;;;6.00;3.85;;;;;;;5.65;56.36;96351.88;6193512;23;20047;-87
2024/01/28 03:37:06;;;;;;;8.45;5.07;;;;;;;5.38;57.36;96359.16;6242765;22;20016;-87
2024/01/28 03:39:34;;;;;;;7.43;4.78;;;;;;;5.43;57.22;96349.31;6243331;23;20042;-88
2024/01/28 03:42:03;;;;;;;9.15;5.28;;;;;;;5.71;56.46;96365.22;6218750;23;20026;-86
2024/01/28 03:44:30;;;;;;;12.02;5.88;;;;;;;5.62;56.57;96349.53;6218186;23;20008;-86
2024/01/28 03:46:55;;;;;;;7.28;5.28;;;;;;;5.63;56.46;96358.91;6193097;23;20050;-86
2024/01/28 03:49:21;;;;;;;7.78;5.60;;;;;;;5.33;56.63;96346.63;6218141;23;20008;-86
2024/01/28 03:51:47;;;;;;;9.10;5.88;;;;;;;5.28;57.75;96356.47;6217978;23;20008;-86
2024/01/28 04:04:24;;;;;;;10.48;6.55;;;;;;;5.27;57.64;96352.22;6237882;22;20035;-87
2024/01/28 04:06:49;;;;;;;9.90;6.20;;;;;;;5.45;57.02;96356.00;6192566;23;20030;-87
2024/01/28 04:09:14;;;;;;;10.55;6.82;;;;;;;5.35;57.69;96365.38;6192785;23;20086;-87
2024/01/28 04:11:43;;;;;;;9.80;6.53;;;;;;;5.49;56.70;96352.22;6217658;23;20015;-87
2024/01/28 04:14:08;;;;;;;8.20;6.00;;;;;;;5.23;56.75;96355.97;6218565;23;20011;-87
2024/01/28 04:16:37;;;;;;;9.63;6.03;;;;;;;4.99;58.23;96353.47;6168501;23;20016;-88
2024/01/28 04:19:02;;;;;;;9.40;6.32;;;;;;;5.06;58.26;96362.41;6217535;23;20015;-86
2024/01/28 04:21:29;;;;;;;8.77;5.90;;;;;;;5.19;57.97;96367.47;6192758;23;20007;-86
2024/01/28 04:34:06;;;;;;;10.73;6.43;;;;;;;5.13;57.65;96365.34;6213745;23;20035;-88
2024/01/28 04:36:33;;;;;;;10.57;7.00;;;;;;;5.14;57.95;96361.81;6237669;23;20005;-86
2024/01/28 04:38:59;;;;;;;16.25;9.48;;;;;;;5.03;58.15;96355.72;6212585;23;20013;-87
2024/01/28 04:41:27;;;;;;;12.57;8.38;;;;;;;4.98;58.55;96367.31;6188052;23;20065;-87
2024/01/28 04:43:52;;;;;;;11.95;8.43;;;;;;;5.12;58.00;96364.50;6213097;23;20096;-86
2024/01/28 04:54:03;;;;;;;39.20;17.08;;;;;;;4.82;60.53;96372.81;6212770;23;20024;-86
2024/01/28 04:56:29;;;;;;;154.35;20.05;;;;;;;4.86;61.12;96358.75;6162481;23;20075;-87
2024/01/28 04:58:55;;;;;;;56.83;19.67;;;;;;;4.70;61.03;96372.78;6162438;23;20012;-87
2024/01/28 05:01:20;;;;;;;46.67;17.25;;;;;;;4.66;60.99;96383.41;6186952;23;20024;-87
2024/01/28 05:11:23;;;;;;;339.85;27.20;;;;;;;4.50;62.31;96388.84;6242730;22;20028;-88
2024/01/28 05:13:48;;;;;;;404.08;29.95;;;;;;;4.45;62.79;96385.78;6192363;23;20012;-87
2024/01/28 05:16:14;;;;;;;385.52;30.00;;;;;;;4.31;63.06;96390.16;6217542;23;20069;-87
2024/01/28 05:18:39;;;;;;;547.65;32.88;;;;;;;4.50;63.02;96388.84;6191590;23;20012;-87
2024/01/28 05:21:05;;;;;;;434.83;31.83;;;;;;;4.39;63.76;96402.50;6217313;23;20062;-87
2024/01/28 05:23:30;;;;;;;372.20;29.25;;;;;;;4.14;64.69;96397.47;6192014;23;20066;-88
2024/01/28 05:25:57;;;;;;;739.60;44.58;;;;;;;4.24;64.12;96404.41;6217060;23;20038;-87
2024/01/28 05:33:23;;;;;;;414.92;33.35;;;;;;;3.69;66.55;96406.53;6242417;22;20744;-86
2024/01/28 05:35:49;;;;;;;790.55;51.20;;;;;;;3.36;67.37;96417.38;6192404;23;20020;-86
2024/01/28 05:38:14;;;;;;;534.63;36.83;;;;;;;3.37;67.45;96419.03;6217080;23;20012;-87
2024/01/28 05:40:41;;;;;;;605.08;41.22;;;;;;;3.52;67.73;96417.16;6216972;23;20018;-87
2024/01/28 05:43:07;;;;;;;298.20;27.42;;;;;;;3.64;67.29;96416.31;6192626;23;20012;-86
2024/01/28 05:45:33;;;;;;;247.68;29.23;;;;;;;3.71;66.78;96420.13;6192748;23;20022;-87
2024/01/28 05:48:01;;;;;;;158.27;23.63;;;;;;;3.82;65.73;96409.06;6218105;23;20039;-86
2024/01/28 05:50:29;;;;;;;357.65;31.38;;;;;;;3.91;65.97;96418.72;6218765;23;20008;-88
2024/01/28 05:52:54;;;;;;;355.88;30.13;;;;;;;3.91;65.88;96417.91;6193518;23;20012;-87
2024/01/28 05:55:20;;;;;;;270.00;27.98;;;;;;;3.97;66.42;96429.53;6193530;23;20004;-87
2024/01/28 05:57:46;;;;;;;466.35;33.70;;;;;;;4.04;65.39;96418.72;6218362;23;20004;-87
2024/01/28 06:00:16;;;;;;;642.85;39.72;;;;;;;3.85;66.93;96413.19;6194622;23;20062;-87
2024/01/28 06:02:42;;;;;;;608.47;39.45;;;;;;;4.12;66.03;96420.75;6193737;23;20008;-86
2024/01/28 06:05:10;;;;;;;547.85;37.92;;;;;;;4.10;66.22;96420.84;6218513;23;20030;-87
2024/01/28 06:07:36;;;;;;;750.55;43.60;;;;;;;3.94;66.43;96412.56;6218314;23;20023;-86
2024/01/28 06:10:02;;;;;;;605.80;35.00;;;;;;;3.75;67.26;96401.88;6193285;23;20004;-87
2024/01/28 06:12:27;;;;;;;508.10;33.42;;;;;;;4.02;65.92;96419.75;6217857;23;20043;-87
2024/01/28 06:14:57;;;;;;;259.85;24.48;;;;;;;3.83;66.18;96426.19;6192771;23;20229;-87
2024/01/28 06:19:48;;;;;;;134.07;20.77;;;;;;;4.19;65.44;96415.97;6187254;23;20285;-87
2024/01/28 06:22:16;;;;;;;268.30;25.98;;;;;;;4.01;65.27;96418.09;6151165;23;20008;-87
2024/01/28 06:24:42;;;;;;;173.70;23.00;;;;;;;4.14;64.63;96418.06;6162184;23;20070;-86
2024/01/28 06:27:09;;;;;;;93.45;20.85;;;;;;;4.04;64.86;96415.31;6162441;23;20040;-86
2024/01/28 06:29:37;;;;;;;44.47;18.17;;;;;;;4.10;64.54;96417.47;6212034;23;20008;-85
2024/01/28 06:32:03;;;;;;;58.47;15.85;;;;;;;4.17;63.83;96416.09;6186803;23;20013;-86
2024/01/28 06:37:04;;;;;;;70.70;16.35;;;;;;;4.02;64.57;96402.56;6242274;22;20020;-87
2024/01/28 06:39:33;;;;;;;56.15;15.23;;;;;;;4.03;63.88;96418.81;6192052;23;20028;-86
2024/01/28 06:41:59;;;;;;;23.05;12.60;;;;;;;4.09;62.37;96396.03;6192152;23;20024;-87
2024/01/28 06:44:24;;;;;;;20.95;11.55;;;;;;;4.20;61.42;96403.00;6218055;23;20007;-86
2024/01/28 06:49:17;;;;;;;19.98;11.00;;;;;;;3.75;62.11;96395.00;6243363;22;20115;-87
2024/01/28 06:51:43;;;;;;;17.92;9.23;;;;;;;3.72;61.60;96405.50;6218818;23;20116;-87
2024/01/28 06:54:10;;;;;;;14.25;8.68;;;;;;;3.72;61.88;96402.94;6219104;23;20007;-87
2024/01/28 07:04:38;;;;;;;21.65;11.93;;;;;;;3.44;61.58;96398.84;6206991;23;20024;-87
2024/01/28 07:07:04;;;;;;;21.05;11.73;;;;;;;3.66;61.48;96400.78;6164009;23;20020;-87
2024/01/28 07:09:34;;;;;;;20.33;11.52;;;;;;;3.95;61.43;96411.63;6188388;23;20048;-87
2024/01/28 07:12:00;;;;;;;20.05;10.80;;;;;;;3.87;61.29;96407.00;6163522;23;20000;-87
2024/01/28 07:14:25;;;;;;;19.23;10.90;;;;;;;4.13;61.07;96411.25;6163798;23;20028;-87
2024/01/28 07:16:53;;;;;;;19.77;10.48;;;;;;;4.07;60.76;96407.38;6163458;23;20016;-87
2024/01/28 07:19:19;;;;;;;17.20;10.20;;;;;;;3.72;61.13;96400.34;6188271;23;20084;-87
2024/01/28 07:21:44;;;;;;;19.58;10.20;;;;;;;3.81;61.43;96401.44;6163707;23;20091;-87
2024/01/28 07:31:35;;;;;;;23.02;11.60;;;;;;;4.13;61.10;96400.97;6214046;23;20031;-87
2024/01/28 07:34:03;;;;;;;23.38;12.88;;;;;;;4.20;60.15;96397.84;6187855;23;20001;-87
2024/01/28 07:36:30;;;;;;;22.33;11.93;;;;;;;4.16;60.54;96424.75;6164016;23;20012;-87
2024/01/28 07:38:59;;;;;;;23.73;12.48;;;;;;;4.11;61.07;96414.78;6163795;23;20004;-87
2024/01/28 07:41:26;;;;;;;21.88;12.07;;;;;;;4.14;60.81;96410.34;6163790;23;20008;-86
2024/01/28 07:43:51;;;;;;;23.38;13.00;;;;;;;4.21;60.46;96401.25;6188324;23;20032;-87
2024/01/28 07:48:52;;;;;;;22.67;11.93;;;;;;;4.35;60.91;96418.28;6241357;22;20012;-87
2024/01/28 07:51:17;;;;;;;17.05;10.50;;;;;;;4.35;61.84;96406.22;6193335;23;20015;-88
2024/01/28 07:53:43;;;;;;;19.02;10.77;;;;;;;4.65;61.17;96395.47;6192446;23;20058;-87
2024/01/28 07:56:08;;;;;;;16.63;9.77;;;;;;;5.26;59.82;96390.09;6218111;23;20087;-87
2024/01/28 07:58:36;;;;;;;16.05;9.57;;;;;;;6.25;57.65;96396.28;6218059;23;20008;-87
2024/01/28 08:03:38;;;;;;;15.05;8.35;;;;;;;8.95;50.39;96389.13;6243382;22;20023;-88
2024/01/28 08:06:04;;;;;;;13.57;8.88;;;;;;;10.05;47.89;96398.88;6193664;23;20071;-87
2024/01/28 08:08:30;;;;;;;12.57;8.60;;;;;;;10.80;46.29;96380.47;6218260;23;20000;-86
2024/01/28 08:10:56;;;;;;;15.55;10.10;;;;;;;11.12;44.87;96390.31;6192885;23;20019;-87
2024/01/28 08:16:03;;;;;;;13.65;9.85;;;;;;;12.55;41.81;96393.25;6244293;22;20027;-86
2024/01/28 08:18:29;;;;;;;14.02;9.55;;;;;;;12.96;42.40;96379.41;6217017;23;20011;-87
2024/01/28 08:20:55;;;;;;;11.70;9.07;;;;;;;13.15;40.39;96378.25;6192713;23;20020;-86
2024/01/28 08:23:20;;;;;;;11.65;8.90;;;;;;;13.41;39.58;96383.31;6193299;23;20121;-87
2024/01/28 08:56:32;;;;;;;12.35;10.75;;;;;;;15.58;36.84;96388.53;6242125;22;20099;-86
2024/01/28 08:58:58;;;;;;;13.48;11.02;;;;;;;16.58;35.18;96387.19;6223644;23;20012;-87
2024/01/28 09:01:23;;;;;;;14.07;11.43;;;;;;;16.55;35.27;96399.88;6251361;23;20050;-87
2024/01/28 09:03:49;;;;;;;15.02;11.60;;;;;;;16.58;35.15;96386.34;6222791;23;20008;-86
2024/01/28 09:26:24;;;;;;;14.20;12.30;;;;;;;15.05;38.32;96392.97;6243812;23;20035;-85
2024/01/28 09:28:50;;;;;;;12.23;10.88;;;;;;;16.48;36.37;96399.00;6217563;23;20016;-86
2024/01/28 09:49:27;;;;;;;12.45;10.98;;;;;;;15.00;39.78;96379.56;6183301;23;20024;-86
2024/01/28 10:17:19;;;;;;;14.40;12.05;;;;;;;12.65;43.94;96406.97;6177227;23;20032;-86
2024/01/28 10:23:02;;;;;;;15.02;11.75;;;;;;;12.73;44.96;96406.16;6182399;23;20029;-86
2024/01/28 10:25:30;;;;;;;12.18;10.23;;;;;;;12.68;42.76;96398.00;6133802;23;20017;-85
2024/01/28 10:27:55;;;;;;;13.85;11.00;;;;;;;12.70;42.69;96406.50;6157774;23;20009;-86
2024/01/28 10:45:55;;;;;;;21.67;14.80;;;;;;;10.91;48.89;96401.06;6202460;23;20036;-85
2024/01/28 10:48:23;;;;;;;20.50;14.32;;;;;;;11.17;47.01;96391.63;6186702;23;20032;-86
2024/01/28 11:00:51;;;;;;;22.65;15.88;;;;;;;11.58;48.62;96391.91;6218321;22;20028;-86
2024/01/28 11:03:17;;;;;;;22.73;15.50;;;;;;;11.29;48.58;96375.63;6216668;23;20013;-87
2024/01/28 11:05:43;;;;;;;22.90;15.93;;;;;;;11.28;50.12;96373.16;6191542;23;20012;-86
2024/01/28 11:08:08;;;;;;;20.77;14.65;;;;;;;11.69;47.60;96373.38;6216642;23;20052;-87
2024/01/28 11:15:36;;;;;;;20.83;14.65;;;;;;;11.13;49.03;96354.66;6185108;22;20025;-86
2024/01/28 11:18:01;;;;;;;20.35;14.95;;;;;;;11.22;48.70;96358.16;6186274;23;20086;-87
2024/01/28 11:20:27;;;;;;;19.20;14.13;;;;;;;11.29;49.12;96359.16;6162405;23;20004;-86
2024/01/28 11:23:00;;;;;;;21.42;14.90;;;;;;;11.09;48.69;96356.75;6186757;23;20013;-86
2024/01/28 11:30:30;;;;;;;23.02;15.05;;;;;;;11.09;49.68;96329.91;6213839;23;20025;-87
2024/01/28 11:35:23;;;;;;;21.20;14.65;;;;;;;11.29;49.95;96339.16;6218388;22;20024;-87
2024/01/28 11:37:53;;;;;;;20.73;14.13;;;;;;;11.39;48.11;96328.63;6218347;23;20066;-87
2024/01/28 11:40:30;;;;;;;19.50;14.45;;;;;;;11.39;49.21;96325.22;6218289;23;20067;-86
2024/01/28 11:42:55;;;;;;;18.48;13.50;;;;;;;11.45;48.66;96312.38;6218737;23;20012;-86
2024/01/28 11:50:27;;;;;;;19.00;13.95;;;;;;;11.70;49.60;96310.66;6214219;22;20020;-86
2024/01/28 11:52:53;;;;;;;19.90;14.57;;;;;;;11.84;48.73;96308.44;6193887;23;20035;-87
2024/01/28 11:55:19;;;;;;;23.30;15.35;;;;;;;11.72;48.41;96307.91;6193391;23;20012;-86
2024/01/28 11:57:46;;;;;;;19.63;14.18;;;;;;;11.96;48.43;96311.63;6218132;23;20012;-87
2024/01/28 12:00:13;;;;;;;20.70;14.57;;;;;;;12.06;48.40;96309.66;6168962;23;20078;-87
2024/01/28 12:02:42;;;;;;;20.10;14.45;;;;;;;12.08;47.70;96295.50;6212810;23;20016;-87
2024/01/28 12:05:09;;;;;;;19.50;13.98;;;;;;;11.85;48.68;96299.66;6213165;23;20040;-87
2024/01/28 12:07:36;;;;;;;19.63;14.45;;;;;;;11.87;48.56;96287.28;6188533;23;20012;-87
2024/01/28 12:17:51;;;;;;;19.40;13.98;;;;;;;11.74;48.44;96285.91;6240378;22;20043;-87
2024/01/28 12:20:22;;;;;;;21.02;14.77;;;;;;;11.78;48.02;96280.41;6192836;23;20024;-87
2024/01/28 12:22:47;;;;;;;21.02;14.77;;;;;;;11.91;46.94;96292.03;6218066;23;20011;-87
2024/01/28 12:32:49;;;;;;;18.95;13.85;;;;;;;11.92;48.68;96270.22;6243411;22;20027;-86
2024/01/28 12:35:15;;;;;;;20.10;14.52;;;;;;;11.98;48.97;96279.19;6193383;23;20011;-86
2024/01/28 12:37:42;;;;;;;20.77;14.27;;;;;;;12.05;48.04;96272.34;6192640;23;20039;-86
2024/01/28 12:40:11;;;;;;;21.35;14.90;;;;;;;12.04;48.07;96273.31;6217244;23;20008;-86
2024/01/28 12:42:40;;;;;;;19.43;14.40;;;;;;;12.14;47.84;96270.56;6242976;23;20008;-87
2024/01/28 12:45:08;;;;;;;19.38;14.20;;;;;;;11.83;48.80;96270.31;6214350;23;20266;-85
2024/01/28 12:47:40;;;;;;;19.33;14.43;;;;;;;11.77;49.12;96265.75;6217213;23;20055;-86
2024/01/28 12:50:06;;;;;;;20.05;14.70;;;;;;;12.19;49.07;96270.09;6217563;23;20016;-86
2024/01/28 13:10:22;;;;;;;19.55;14.20;;;;;;;11.75;48.88;96250.28;6194727;23;20021;-86
2024/01/28 13:12:49;;;;;;;20.25;14.15;;;;;;;12.27;47.99;96257.84;6203214;23;20012;-84
2024/01/28 13:15:14;;;;;;;20.77;13.95;;;;;;;12.24;47.24;96249.53;6201873;23;20008;-85
2024/01/28 13:22:50;;;;;;;20.27;13.70;;;;;;;12.38;47.28;96241.06;6192788;23;20025;-85
2024/01/28 13:25:16;;;;;;;18.42;13.48;;;;;;;12.31;46.73;96251.34;6142089;23;20069;-87
2024/01/28 13:27:41;;;;;;;18.20;13.27;;;;;;;12.43;47.32;96248.41;6159194;23;20008;-87
2024/01/28 13:30:08;;;;;;;18.67;13.75;;;;;;;12.43;46.66;96230.97;6158024;23;20013;-86
2024/01/28 13:32:37;;;;;;;18.80;13.45;;;;;;;12.58;45.95;96238.13;6157499;23;20031;-87
2024/01/28 13:35:09;;;;;;;19.05;13.55;;;;;;;12.68;45.83;96236.16;6158028;23;20064;-86
2024/01/28 13:40:10;;;;;;;18.88;13.13;;;;;;;12.26;45.92;96226.72;6238713;22;20032;-86
2024/01/28 13:42:39;;;;;;;18.88;13.50;;;;;;;12.36;46.93;96230.00;6218089;23;20004;-86
2024/01/28 13:45:11;;;;;;;18.23;13.10;;;;;;;12.33;46.28;96230.31;6193886;23;20008;-86
2024/01/28 13:47:41;;;;;;;17.48;13.18;;;;;;;12.35;46.38;96230.97;6218271;23;20000;-86
2024/01/28 13:50:07;;;;;;;18.63;13.10;;;;;;;12.58;46.25;96238.94;6218448;23;20008;-87
2024/01/28 13:52:33;;;;;;;17.35;12.43;;;;;;;12.33;47.09;96232.91;6243105;22;20012;-86
2024/01/28 13:54:59;;;;;;;19.67;13.82;;;;;;;12.30;46.61;96217.59;6218026;23;20043;-86
2024/01/28 13:57:24;;;;;;;17.63;13.00;;;;;;;12.58;45.84;96232.91;6217718;23;19999;-86
2024/01/28 13:59:50;;;;;;;19.08;13.95;;;;;;;12.09;46.88;96234.56;6192820;23;20012;-86
2024/01/28 14:07:19;;;;;;;19.27;13.50;;;;;;;12.12;46.81;96238.63;6242616;22;20012;-86
2024/01/28 14:09:44;;;;;;;17.83;13.32;;;;;;;12.20;47.42;96233.38;6217174;23;20008;-86
2024/01/28 14:12:11;;;;;;;17.40;12.80;;;;;;;12.45;47.27;96221.19;6217115;23;20011;-86
2024/01/28 14:14:37;;;;;;;18.20;12.88;;;;;;;12.47;47.05;96223.59;6217398;23;20000;-86
2024/01/28 14:17:02;;;;;;;16.88;12.77;;;;;;;12.52;46.68;96227.34;6191285;23;20226;-86
2024/01/28 14:24:31;;;;;;;17.25;12.25;;;;;;;12.31;46.70;96220.03;6237152;22;20035;-86
2024/01/28 14:26:57;;;;;;;17.98;13.00;;;;;;;12.23;47.18;96222.66;6217137;23;20046;-86
2024/01/28 14:29:22;;;;;;;18.33;12.55;;;;;;;12.71;45.82;96225.38;6191409;23;20012;-86
2024/01/28 14:36:48;;;;;;;17.52;12.45;;;;;;;12.05;46.54;96225.41;6234861;22;20027;-89
2024/01/28 14:39:14;;;;;;;15.90;11.77;;;;;;;12.12;46.27;96215.94;6190714;23;20008;-87
2024/01/28 14:41:39;;;;;;;19.05;12.45;;;;;;;12.03;46.76;96224.78;6216024;23;20008;-87
2024/01/28 14:44:05;;;;;;;17.50;12.13;;;;;;;11.86;46.28;96223.06;6215720;23;20015;-87
2024/01/28 14:46:31;;;;;;;18.02;13.00;;;;;;;11.73;46.75;96232.19;6215646;23;20000;-86
2024/01/28 14:49:01;;;;;;;15.90;11.48;;;;;;;11.74;46.97;96220.75;6240061;23;20010;-87
2024/01/28 14:51:27;;;;;;;19.33;13.15;;;;;;;11.70;46.55;96210.81;6191588;23;20019;-86
2024/01/28 14:53:52;;;;;;;15.88;11.30;;;;;;;11.91;46.34;96231.25;6215246;23;20000;-86
2024/01/28 14:58:43;;;;;;;16.58;11.98;;;;;;;11.74;47.00;96210.34;6025911;23;3947683;-85
2024/01/28 15:01:09;;;;;;;17.55;12.35;;;;;;;11.79;47.18;96211.66;6191599;23;20044;-86
2024/01/28 15:06:00;;;;;;;17.92;12.73;;;;;;;11.78;47.15;96216.03;6243528;22;20024;-87
2024/01/28 15:08:25;;;;;;;16.95;12.40;;;;;;;11.62;47.52;96216.03;6218426;23;20012;-85
2024/01/28 15:10:51;;;;;;;16.20;12.20;;;;;;;11.61;47.43;96223.00;6218432;23;20011;-85
2024/01/28 15:13:17;;;;;;;18.00;12.20;;;;;;;11.57;47.24;96206.06;6199160;23;20098;-86
2024/01/28 15:15:42;;;;;;;17.30;12.80;;;;;;;11.49;47.49;96200.84;6109616;23;20020;-86
2024/01/28 15:18:09;;;;;;;18.88;12.70;;;;;;;11.45;47.75;96212.56;6158638;23;20017;-86
2024/01/28 15:20:34;;;;;;;17.23;12.38;;;;;;;11.51;47.23;96212.72;6134040;23;20019;-85
2024/01/28 15:23:00;;;;;;;19.60;13.43;;;;;;;11.09;48.31;96192.72;6158748;23;20005;-85
2024/01/28 15:25:29;;;;;;;16.77;12.50;;;;;;;10.92;48.76;96204.84;6134131;23;20017;-86
2024/01/28 15:27:54;;;;;;;18.10;12.95;;;;;;;11.07;48.68;96199.06;6183705;23;20013;-85
2024/01/28 15:42:19;;;;;;;17.45;11.85;;;;;;;10.71;49.96;96187.00;6241221;22;20028;-85
2024/01/28 15:44:45;;;;;;;18.90;12.55;;;;;;;10.62;49.87;96174.94;6192930;23;20101;-85
2024/01/28 15:47:10;;;;;;;19.42;13.30;;;;;;;10.50;50.34;96178.78;6218609;23;20004;-86
2024/01/28 15:49:36;;;;;;;18.67;12.93;;;;;;;10.09;50.78;96171.47;6193494;23;20015;-85
2024/01/28 15:52:06;;;;;;;17.95;13.05;;;;;;;10.14;51.73;96168.41;6218376;23;20064;-85
2024/01/28 15:54:32;;;;;;;20.15;13.20;;;;;;;10.27;51.65;96165.44;6219067;23;20008;-86
2024/01/28 15:56:57;;;;;;;21.17;13.45;;;;;;;10.41;51.70;96151.88;6217676;23;20034;-85
2024/01/28 15:59:23;;;;;;;18.23;13.13;;;;;;;10.62;51.50;96169.72;6193360;23;20058;-85
2024/01/28 16:01:48;;;;;;;19.10;12.90;;;;;;;10.45;51.52;96158.44;6218352;23;20015;-86
2024/01/28 16:06:49;;;;;;;18.02;12.35;;;;;;;10.55;50.76;96158.31;6196759;22;20021;-85
2024/01/28 16:09:15;;;;;;;19.17;13.30;;;;;;;10.47;50.75;96168.66;6188108;23;20012;-86
2024/01/28 16:11:40;;;;;;;19.15;13.85;;;;;;;10.30;50.81;96159.91;6188045;23;20000;-85
2024/01/28 16:14:06;;;;;;;19.42;13.35;;;;;;;10.06;51.53;96161.38;6187842;23;20008;-86
2024/01/28 16:16:31;;;;;;;20.90;13.85;;;;;;;10.00;51.38;96164.59;6187242;23;20016;-85
2024/01/28 16:21:32;;;;;;;22.45;14.00;;;;;;;9.63;52.66;96165.53;6183600;23;20025;-84
2024/01/28 16:24:00;;;;;;;20.50;14.10;;;;;;;9.31;53.84;96158.25;6109604;23;20020;-85
2024/01/28 16:26:27;;;;;;;17.27;11.88;;;;;;;9.06;53.38;96164.94;6158476;23;20085;-86
2024/01/28 16:28:55;;;;;;;13.32;9.32;;;;;;;9.12;52.82;96165.22;6157946;23;20080;-87
2024/01/28 16:31:24;;;;;;;7.30;5.15;;;;;;;9.42;51.94;96170.22;6133733;23;20063;-86
2024/01/28 16:33:53;;;;;;;4.57;3.45;;;;;;;9.27;51.63;96162.09;6163460;23;20016;-85
2024/01/28 16:36:18;;;;;;;5.13;3.25;;;;;;;9.26;50.48;96169.09;6138413;23;20092;-86
2024/01/28 16:38:46;;;;;;;5.35;4.35;;;;;;;9.26;50.15;96169.09;6187506;23;20076;-86
2024/01/28 16:41:11;;;;;;;6.47;4.25;;;;;;;9.37;49.67;96171.47;6163360;23;20036;-86
2024/01/28 16:43:37;;;;;;;7.57;6.35;;;;;;;9.51;49.01;96156.34;6187388;23;20007;-85
2024/01/28 16:48:27;;;;;;;9.57;5.60;;;;;;;9.42;49.02;96162.44;6242142;22;20038;-86
2024/01/28 16:50:53;;;;;;;9.13;5.85;;;;;;;9.52;48.63;96157.97;6218263;23;20078;-85
2024/01/28 16:53:20;;;;;;;7.05;4.70;;;;;;;9.53;48.52;96170.00;6218042;23;20008;-85
2024/01/28 16:55:46;;;;;;;5.50;4.07;;;;;;;9.21;49.83;96186.88;6193304;23;20028;-86
2024/01/28 16:58:11;;;;;;;6.85;4.75;;;;;;;9.19;49.00;96188.78;6217876;23;20008;-85
2024/01/28 17:00:37;;;;;;;6.57;4.70;;;;;;;9.16;48.96;96189.91;6192770;23;20016;-86
2024/01/28 17:03:03;;;;;;;8.15;5.70;;;;;;;9.19;49.48;96193.97;6217531;23;20087;-84
2024/01/28 17:07:54;;;;;;;7.38;5.40;;;;;;;8.95;50.53;96212.69;6187058;23;20017;-85
2024/01/28 17:10:24;;;;;;;9.30;5.68;;;;;;;8.66;51.47;96213.56;6187734;23;20016;-85
2024/01/28 17:12:53;;;;;;;9.77;5.68;;;;;;;8.76;50.56;96213.56;6187934;23;20077;-85
2024/01/28 17:15:18;;;;;;;9.05;6.22;;;;;;;8.59;50.08;96205.56;6163142;23;20075;-86